createdAt,value
2022-10-03T00:00:15.798Z,101201.34
2022-10-03T00:03:34.413Z,101213.91
2022-10-03T00:06:50.736Z,101216.56
2022-10-03T00:10:03.880Z,101211.09
2022-10-03T00:13:20.448Z,101215.09
2022-10-03T00:16:34.570Z,101206.06
2022-10-03T00:19:46.094Z,101214.84
2022-10-03T00:22:53.324Z,101212.06
2022-10-03T00:26:25.458Z,101208.03
2022-10-03T00:29:49.215Z,101211.63
2022-10-03T00:33:07.912Z,101209.97
2022-10-03T00:36:20.751Z,101210.81
2022-10-03T00:39:35.288Z,101220.47
2022-10-03T00:42:59.997Z,101216.88
2022-10-03T00:46:22.706Z,101211.78
2022-10-03T00:49:54.405Z,101218.69
2022-10-03T00:53:07.872Z,101222.81
2022-10-03T00:56:29.441Z,101218.81
2022-10-03T00:59:49.234Z,101225.28
2022-10-03T01:03:04.800Z,101227.38
2022-10-03T01:06:28.093Z,101221.81
2022-10-03T01:09:42.523Z,101225.97
2022-10-03T01:13:08.998Z,101235.91
2022-10-03T01:16:18.944Z,101239.63
2022-10-03T01:19:48.368Z,101244.31
2022-10-03T01:23:32.485Z,101244.84
2022-10-03T01:26:54.592Z,101249.78
2022-10-03T01:30:19.617Z,101246.59
2022-10-03T01:33:28.385Z,101259.03
2022-10-03T01:36:38.252Z,101261.56
2022-10-03T01:39:46.989Z,101264.97
2022-10-03T01:43:02.134Z,101262.06
2022-10-03T01:46:17.222Z,101260.63
2022-10-03T01:49:25.831Z,101267.03
2022-10-03T01:52:39.330Z,101273.56
2022-10-03T01:55:54.454Z,101273.28
2022-10-03T01:59:03.057Z,101275.53
2022-10-03T02:02:11.502Z,101273.50
2022-10-03T02:05:21.161Z,101265.09
2022-10-03T02:08:30.179Z,101283.69
2022-10-03T02:11:37.892Z,101273.38
2022-10-03T02:14:54.995Z,101270.91
2022-10-03T02:18:12.939Z,101266.66
2022-10-03T02:21:18.952Z,101269.88
2022-10-03T02:24:37.588Z,101278.06
2022-10-03T02:28:24.242Z,101282.69
2022-10-03T02:32:07.772Z,101276.16
2022-10-03T02:35:28.268Z,101274.75
2022-10-03T02:39:12.393Z,101271.75
2022-10-03T02:42:40.277Z,101261.66
2022-10-03T02:46:07.363Z,101273.56
2022-10-03T02:49:35.499Z,101267.31
2022-10-03T02:53:02.757Z,101263.84
2022-10-03T02:56:44.343Z,101266.28
2022-10-03T03:00:05.192Z,101270.13
2022-10-03T03:03:41.836Z,101274.38
2022-10-03T03:06:57.534Z,101270.72
2022-10-03T03:10:29.777Z,101282.56
2022-10-03T03:13:48.365Z,101287.09
2022-10-03T03:17:07.021Z,101280.91
2022-10-03T03:20:32.783Z,101288.25
2022-10-03T03:23:46.771Z,101296.00
2022-10-03T03:27:18.249Z,101294.91
2022-10-03T03:30:24.896Z,101300.16
2022-10-03T03:33:38.842Z,101306.31
2022-10-03T03:36:49.497Z,101302.72
2022-10-03T03:40:07.591Z,101302.03
2022-10-03T03:43:34.348Z,101302.44
2022-10-03T03:46:45.721Z,101306.94
2022-10-03T03:50:07.997Z,101311.31
2022-10-03T03:53:29.450Z,101307.91
2022-10-03T03:56:54.602Z,101310.94
2022-10-03T04:00:09.293Z,101311.72
2022-10-03T04:03:25.462Z,101316.97
2022-10-03T04:06:43.487Z,101319.84
2022-10-03T04:10:06.941Z,101316.09
2022-10-03T04:13:24.202Z,101310.28
2022-10-03T04:16:59.949Z,101324.91
2022-10-03T04:20:15.989Z,101320.06
2022-10-03T04:23:33.389Z,101333.16
2022-10-03T04:26:51.868Z,101324.56
2022-10-03T04:30:05.790Z,101323.84
2022-10-03T04:33:27.853Z,101334.34
2022-10-03T04:36:51.582Z,101331.84
2022-10-03T04:40:03.768Z,101345.50
2022-10-03T04:43:13.707Z,101340.28
2022-10-03T04:46:26.281Z,101339.56
2022-10-03T04:49:35.907Z,101341.44
2022-10-03T04:52:43.009Z,101336.19
2022-10-03T04:55:49.139Z,101335.84
2022-10-03T04:58:56.315Z,101330.66
2022-10-03T05:02:04.156Z,101337.00
2022-10-03T05:05:40.809Z,101328.03
2022-10-03T05:08:49.600Z,101341.47
2022-10-03T05:11:59.855Z,101337.75
2022-10-03T05:15:21.417Z,101338.50
2022-10-03T05:18:35.073Z,101341.13
2022-10-03T05:21:45.299Z,101344.13
2022-10-03T05:24:56.179Z,101349.69
2022-10-03T05:28:06.887Z,101350.66
2022-10-03T05:31:24.730Z,101353.84
2022-10-03T05:34:38.988Z,101363.34
2022-10-03T05:38:21.652Z,101364.13
2022-10-03T05:41:27.915Z,101358.50
2022-10-03T05:44:40.868Z,101363.53
2022-10-03T05:47:50.432Z,101363.91
2022-10-03T05:51:13.013Z,101364.47
2022-10-03T05:54:47.499Z,101372.53
2022-10-03T05:58:11.171Z,101377.94
2022-10-03T06:01:27.857Z,101380.38
2022-10-03T06:04:57.099Z,101386.34
2022-10-03T06:08:32.331Z,101395.34
2022-10-03T06:12:11.466Z,101396.06
2022-10-03T06:15:38.364Z,101400.56
2022-10-03T06:19:03.808Z,101404.88
2022-10-03T06:22:39.118Z,101395.69
2022-10-03T06:26:02.046Z,101420.16
2022-10-03T06:30:03.704Z,101408.59
2022-10-03T06:33:43.898Z,101423.56
2022-10-03T06:37:06.966Z,101426.16
2022-10-03T06:40:48.890Z,101430.47
2022-10-03T06:44:07.157Z,101425.22
2022-10-03T06:47:24.366Z,101427.47
2022-10-03T06:50:30.956Z,101417.56
2022-10-03T06:54:14.334Z,101423.72
2022-10-03T06:57:39.533Z,101427.25
2022-10-03T07:00:54.640Z,101416.44
2022-10-03T07:04:26.051Z,101421.28
2022-10-03T07:07:53.714Z,101422.03
2022-10-03T07:11:11.157Z,101427.09
2022-10-03T07:14:55.378Z,101426.16
2022-10-03T07:18:23.183Z,101429.69
2022-10-03T07:21:40.945Z,101433.81
2022-10-03T07:25:25.629Z,101430.03
2022-10-03T07:28:54.118Z,101444.38
2022-10-03T07:32:15.733Z,101443.34
2022-10-03T07:36:00.469Z,101445.47
2022-10-03T07:39:27.721Z,101455.31
2022-10-03T07:42:52.344Z,101459.53
2022-10-03T07:46:28.532Z,101459.19
2022-10-03T07:50:02.151Z,101464.69
2022-10-03T07:53:18.270Z,101467.00
2022-10-03T07:56:44.185Z,101465.28
2022-10-03T08:00:13.306Z,101470.63
2022-10-03T08:03:47.402Z,101465.16
2022-10-03T08:07:04.381Z,101471.59
2022-10-03T08:10:37.309Z,101474.25
2022-10-03T08:14:00.774Z,101481.41
2022-10-03T08:17:27.340Z,101473.81
2022-10-03T08:20:52.405Z,101479.94
2022-10-03T08:24:16.983Z,101476.09
2022-10-03T08:27:54.261Z,101480.03
2022-10-03T08:31:18.093Z,101480.25
2022-10-03T08:34:41.315Z,101483.47
2022-10-03T08:38:21.517Z,101483.34
2022-10-03T08:41:58.741Z,101481.41
2022-10-03T08:45:23.358Z,101477.16
2022-10-03T08:49:01.581Z,101486.19
2022-10-03T08:52:28.412Z,101490.09
2022-10-03T08:55:48.497Z,101479.66
2022-10-03T08:59:08.141Z,101476.09
2022-10-03T09:03:28.332Z,101482.22
2022-10-03T09:07:12.100Z,101474.78
2022-10-03T09:10:45.883Z,101480.75
2022-10-03T09:17:51.057Z,101479.88
2022-10-03T09:21:21.637Z,101472.75
2022-10-03T09:24:59.995Z,101480.94
2022-10-03T09:28:32.206Z,101477.72
2022-10-03T09:32:02.567Z,101484.88
2022-10-03T09:35:30.271Z,101479.97
2022-10-03T09:38:48.901Z,101490.50
2022-10-03T09:42:17.918Z,101482.22
2022-10-03T09:46:05.822Z,101482.06
2022-10-03T09:49:38.789Z,101477.31
2022-10-03T09:53:04.220Z,101476.09
2022-10-03T09:56:35.146Z,101473.91
2022-10-03T09:59:58.584Z,101480.00
2022-10-03T10:03:52.019Z,101483.34
2022-10-03T10:07:29.982Z,101475.59
2022-10-03T10:11:06.250Z,101470.13
2022-10-03T10:14:31.400Z,101473.66
2022-10-03T10:18:03.182Z,101465.78
2022-10-03T10:21:47.824Z,101461.78
2022-10-03T10:25:20.305Z,101457.19
2022-10-03T10:29:00.440Z,101462.59
2022-10-03T10:32:30.585Z,101456.47
2022-10-03T10:36:06.848Z,101455.97
2022-10-03T10:39:59.626Z,101460.97
2022-10-03T10:43:47.118Z,101456.09
2022-10-03T10:47:18.048Z,101452.69
2022-10-03T10:50:59.549Z,101454.66
2022-10-03T10:54:37.823Z,101443.50
2022-10-03T10:58:31.938Z,101445.03
2022-10-03T11:02:15.449Z,101444.44
2022-10-03T11:05:48.087Z,101442.09
2022-10-03T11:09:27.130Z,101445.28
2022-10-03T11:13:02.713Z,101447.22
2022-10-03T11:16:38.183Z,101446.53
2022-10-03T11:20:28.563Z,101440.56
2022-10-03T11:24:16.194Z,101438.34
2022-10-03T11:27:53.479Z,101435.47
2022-10-03T11:31:29.632Z,101422.19
2022-10-03T11:35:12.737Z,101425.66
2022-10-03T11:38:20.171Z,101421.47
2022-10-03T11:41:39.244Z,101417.56
2022-10-03T11:44:46.071Z,101413.94
2022-10-03T11:47:56.546Z,101407.59
2022-10-03T11:51:05.387Z,101410.47
2022-10-03T11:54:31.024Z,101401.81
2022-10-03T11:57:39.477Z,101410.03
2022-10-03T12:00:45.356Z,101414.19
2022-10-03T12:03:58.852Z,101410.91
2022-10-03T12:07:25.028Z,101408.03
2022-10-03T12:10:41.478Z,101400.16
2022-10-03T12:13:53.902Z,101397.84
2022-10-03T12:17:12.159Z,101406.03
2022-10-03T12:20:22.885Z,101403.91
2022-10-03T12:23:41.792Z,101395.69
2022-10-03T12:26:52.196Z,101394.06
2022-10-03T12:29:58.601Z,101396.59
2022-10-03T12:33:15.212Z,101390.41
2022-10-03T12:36:20.673Z,101396.25
2022-10-03T12:39:34.768Z,101393.44
2022-10-03T12:42:45.053Z,101386.91
2022-10-03T12:45:59.043Z,101385.16
2022-10-03T12:49:06.435Z,101383.56
2022-10-03T12:52:19.128Z,101380.75
2022-10-03T12:55:28.429Z,101380.25
2022-10-03T12:58:38.275Z,101381.97
2022-10-03T13:01:53.654Z,101379.31
2022-10-03T13:05:24.214Z,101365.84
2022-10-03T13:08:44.712Z,101371.84
2022-10-03T13:11:58.441Z,101355.38
2022-10-03T13:15:33.480Z,101363.72
2022-10-03T13:18:56.979Z,101362.88
2022-10-03T13:22:08.638Z,101362.31
2022-10-03T13:25:18.168Z,101368.38
2022-10-03T13:28:31.333Z,101362.03
2022-10-03T13:31:34.763Z,101354.69
2022-10-03T13:35:20.272Z,101361.25
2022-10-03T13:38:47.524Z,101357.34
2022-10-03T13:42:04.610Z,101356.03
2022-10-03T13:45:14.346Z,101352.22
2022-10-03T13:48:20.563Z,101347.00
2022-10-03T13:51:34.562Z,101338.38
2022-10-03T13:54:57.577Z,101339.09
2022-10-03T13:58:26.177Z,101341.88
2022-10-03T14:01:41.630Z,101348.13
2022-10-03T14:05:07.482Z,101344.41
2022-10-03T14:08:24.782Z,101342.16
2022-10-03T14:11:37.574Z,101338.28
2022-10-03T14:14:58.044Z,101355.53
2022-10-03T14:18:13.540Z,101336.63
2022-10-03T14:21:41.466Z,101342.72
2022-10-03T14:24:57.915Z,101341.41
2022-10-03T14:28:08.211Z,101340.03
2022-10-03T14:31:17.416Z,101332.59
2022-10-03T14:34:33.304Z,101332.09
2022-10-03T14:37:40.677Z,101329.78
2022-10-03T14:40:48.709Z,101339.84
2022-10-03T14:43:54.262Z,101343.47
2022-10-03T14:46:59.941Z,101338.56
2022-10-03T14:50:02.312Z,101330.75
2022-10-03T14:53:10.878Z,101335.47
2022-10-03T14:56:15.235Z,101338.75
2022-10-03T14:59:21.023Z,101326.72
2022-10-03T15:02:29.433Z,101326.63
2022-10-03T15:05:35.086Z,101324.75
2022-10-03T15:08:40.126Z,101328.72
2022-10-03T15:11:48.595Z,101325.22
2022-10-03T15:15:00.512Z,101324.38
2022-10-03T15:18:04.852Z,101326.75
2022-10-03T15:21:14.417Z,101321.97
2022-10-03T15:24:25.077Z,101331.78
2022-10-03T15:27:30.144Z,101320.41
2022-10-03T15:30:35.174Z,101326.09
2022-10-03T15:33:39.474Z,101318.91
2022-10-03T15:36:45.785Z,101325.03
2022-10-03T15:39:48.716Z,101312.81
2022-10-03T15:43:02.833Z,101307.00
2022-10-03T15:46:14.539Z,101303.25
2022-10-03T15:49:24.613Z,101309.88
2022-10-03T15:52:32.172Z,101308.00
2022-10-03T15:55:42.248Z,101306.59
2022-10-03T15:58:49.723Z,101304.16
2022-10-03T16:01:54.500Z,101308.94
2022-10-03T16:04:58.029Z,101307.59
2022-10-03T16:08:06.236Z,101303.13
2022-10-03T16:11:14.385Z,101306.69
2022-10-03T16:14:22.852Z,101296.72
2022-10-03T16:17:34.596Z,101304.66
2022-10-03T16:20:41.395Z,101298.28
2022-10-03T16:23:45.876Z,101297.56
2022-10-03T16:26:52.347Z,101311.19
2022-10-03T16:30:02.264Z,101302.53
2022-10-03T16:33:12.848Z,101303.03
2022-10-03T16:36:18.723Z,101298.63
2022-10-03T16:39:24.900Z,101294.38
2022-10-03T16:42:39.320Z,101290.16
2022-10-03T16:45:46.310Z,101284.66
2022-10-03T16:49:06.760Z,101286.00
2022-10-03T16:52:13.003Z,101291.44
2022-10-03T16:55:17.477Z,101298.75
2022-10-03T16:58:25.032Z,101307.13
2022-10-03T17:01:37.618Z,101309.94
2022-10-03T17:04:42.460Z,101305.59
2022-10-03T17:07:47.426Z,101300.16
2022-10-03T17:10:54.637Z,101293.78
2022-10-03T17:14:01.987Z,101300.31
2022-10-03T17:17:14.703Z,101303.41
2022-10-03T17:20:22.482Z,101295.47
2022-10-03T17:23:33.413Z,101287.69
2022-10-03T17:26:39.349Z,101285.19
2022-10-03T17:29:47.185Z,101279.25
2022-10-03T17:32:56.523Z,101276.53
2022-10-03T17:36:19.109Z,101278.63
2022-10-03T17:39:41.961Z,101283.69
2022-10-03T17:42:46.773Z,101281.19
2022-10-03T17:46:01.180Z,101270.81
2022-10-03T17:49:16.338Z,101278.25
2022-10-03T17:52:20.547Z,101283.72
2022-10-03T17:55:27.297Z,101283.69
2022-10-03T17:58:31.602Z,101282.41
2022-10-03T18:01:37.227Z,101288.53
2022-10-03T18:04:44.587Z,101278.31
2022-10-03T18:07:50.123Z,101269.91
2022-10-03T18:10:55.927Z,101271.88
2022-10-03T18:14:05.950Z,101271.13
2022-10-03T18:17:17.241Z,101280.09
2022-10-03T18:20:37.152Z,101278.41
2022-10-03T18:23:55.210Z,101282.22
2022-10-03T18:27:10.407Z,101280.63
2022-10-03T18:30:19.096Z,101291.75
2022-10-03T18:33:25.693Z,101290.41
2022-10-03T18:36:33.790Z,101282.16
2022-10-03T18:39:56.617Z,101275.34
2022-10-03T18:43:00.685Z,101269.06
2022-10-03T18:46:11.059Z,101277.13
2022-10-03T18:49:35.222Z,101278.97
2022-10-03T18:52:49.123Z,101283.53
2022-10-03T18:55:59.257Z,101286.34
2022-10-03T18:59:23.292Z,101274.72
2022-10-03T19:02:32.992Z,101269.81
2022-10-03T19:05:42.497Z,101270.78
2022-10-03T19:08:50.247Z,101273.19
2022-10-03T19:11:58.645Z,101276.69
2022-10-03T19:15:13.852Z,101271.31
2022-10-03T19:18:23.247Z,101266.03
2022-10-03T19:21:25.716Z,101272.16
2022-10-03T19:24:56.798Z,101268.19
2022-10-03T19:27:58.732Z,101266.31
2022-10-03T19:31:05.425Z,101273.31
2022-10-03T19:34:15.684Z,101274.69
2022-10-03T19:37:24.821Z,101272.78
2022-10-03T19:40:38.682Z,101274.75
2022-10-03T19:43:43.550Z,101272.13
2022-10-03T19:46:51.377Z,101284.66
2022-10-03T19:50:03.206Z,101287.28
2022-10-03T19:53:11.939Z,101275.28
2022-10-03T19:56:17.442Z,101272.03
2022-10-03T19:59:19.329Z,101264.34
2022-10-03T20:02:23.666Z,101259.25
2022-10-03T20:05:37.338Z,101254.09
2022-10-03T20:08:44.288Z,101251.75
2022-10-03T20:11:50.019Z,101257.16
2022-10-03T20:14:52.130Z,101247.28
2022-10-03T20:18:00.785Z,101250.84
2022-10-03T20:21:09.616Z,101251.50
2022-10-03T20:24:18.592Z,101247.50
2022-10-03T20:27:35.836Z,101255.38
2022-10-03T20:30:43.962Z,101248.63
2022-10-03T20:33:46.716Z,101251.09
2022-10-03T20:36:52.216Z,101250.28
2022-10-03T20:40:00.925Z,101255.34
2022-10-03T20:43:41.412Z,101246.09
2022-10-03T20:46:47.039Z,101237.97
2022-10-03T20:49:52.809Z,101237.97
2022-10-03T20:52:58.905Z,101237.25
2022-10-03T20:56:05.801Z,101233.56
2022-10-03T20:59:12.419Z,101227.94
2022-10-03T21:02:23.180Z,101228.31
2022-10-03T21:05:29.322Z,101221.75
2022-10-03T21:08:37.037Z,101224.03
2022-10-03T21:11:42.005Z,101226.00
2022-10-03T21:14:48.199Z,101223.75
2022-10-03T21:17:50.562Z,101233.94
2022-10-03T21:21:03.441Z,101234.13
2022-10-03T21:24:12.252Z,101222.34
2022-10-03T21:27:15.830Z,101216.84
2022-10-03T21:30:21.414Z,101216.75
2022-10-03T21:33:31.098Z,101218.41
2022-10-03T21:36:39.090Z,101210.94
2022-10-03T21:39:52.283Z,101220.81
2022-10-03T21:43:03.251Z,101207.47
2022-10-03T21:46:11.823Z,101201.56
2022-10-03T21:49:35.930Z,101206.34
2022-10-03T21:52:51.941Z,101213.22
2022-10-03T21:56:17.396Z,101213.22
2022-10-03T21:59:34.524Z,101204.69
2022-10-03T22:02:41.208Z,101199.22
2022-10-03T22:05:50.040Z,101200.75
2022-10-03T22:08:52.933Z,101204.59
2022-10-03T22:11:58.744Z,101201.78
2022-10-03T22:15:09.042Z,101197.13
2022-10-03T22:18:14.769Z,101186.81
2022-10-03T22:21:25.942Z,101187.16
2022-10-03T22:24:41.507Z,101199.41
2022-10-03T22:27:50.566Z,101194.69
2022-10-03T22:31:00.778Z,101189.28
2022-10-03T22:34:17.490Z,101175.09
2022-10-03T22:37:19.455Z,101176.16
2022-10-03T22:40:21.980Z,101178.63
2022-10-03T22:43:24.678Z,101162.53
2022-10-03T22:46:31.495Z,101151.34
2022-10-03T22:49:39.361Z,101153.56
2022-10-03T22:52:45.260Z,101155.84
2022-10-03T22:55:51.000Z,101161.66
2022-10-03T22:58:52.902Z,101166.34
2022-10-03T23:01:58.299Z,101158.84
2022-10-03T23:05:04.365Z,101149.75
2022-10-03T23:08:14.094Z,101147.50
2022-10-03T23:11:21.106Z,101142.63
2022-10-03T23:14:26.995Z,101132.66
2022-10-03T23:17:46.586Z,101134.72
2022-10-03T23:21:02.606Z,101129.88
2022-10-03T23:24:09.997Z,101130.78
2022-10-03T23:27:50.473Z,101130.63
2022-10-03T23:30:54.190Z,101123.72
2022-10-03T23:33:56.232Z,101118.50
2022-10-03T23:37:22.635Z,101117.41
2022-10-03T23:40:44.190Z,101119.28
2022-10-03T23:43:49.907Z,101109.91
2022-10-03T23:46:52.231Z,101121.41
2022-10-03T23:49:54.663Z,101125.88
2022-10-03T23:52:58.669Z,101123.50
2022-10-03T23:56:03.093Z,101118.81
2022-10-03T23:59:19.125Z,101115.25
